Time;durP1;ratioP1;P1;durP2;ratioP2;P2;SDS_P1;SDS_P2;PMS_P1;PMS_P2;Temp;Humidity;BMP_temperature;BMP_pressure;BME280_temperature;BME280_humidity;BME280_pressure;Samples;Min_cycle;Max_cycle;Signal;HPM_P1;HPM_P2
2023/03/03 00:00:45;;;;;;;21.65;12.40;;;1.40;99.90;;;;;;4990706;28;20130;-80
2023/03/03 00:03:15;;;;;;;24.65;12.00;;;1.40;99.90;;;;;;4987797;28;20637;-80
2023/03/03 00:05:41;;;;;;;25.35;13.55;;;1.50;99.90;;;;;;4990537;28;20121;-80
2023/03/03 00:08:07;;;;;;;24.65;12.52;;;1.40;99.90;;;;;;4988307;28;20064;-80
2023/03/03 00:10:33;;;;;;;28.30;13.32;;;1.40;99.90;;;;;;4991018;28;20050;-80
2023/03/03 00:12:59;;;;;;;23.67;12.45;;;1.40;99.90;;;;;;4989849;28;20046;-80
2023/03/03 00:15:25;;;;;;;23.52;12.63;;;1.40;99.90;;;;;;4988691;28;20097;-80
2023/03/03 00:17:51;;;;;;;25.77;12.90;;;1.40;99.90;;;;;;4989843;28;20140;-80
2023/03/03 00:20:29;;;;;;;23.92;12.52;;;1.50;99.90;;;;;;4988106;28;20145;-80
2023/03/03 00:23:03;;;;;;;24.33;11.88;;;1.50;99.90;;;;;;4984275;28;20354;-80
2023/03/03 00:25:30;;;;;;;23.83;12.10;;;1.50;99.90;;;;;;4984136;28;20042;-80
2023/03/03 00:28:06;;;;;;;25.17;12.35;;;1.60;99.90;;;;;;4988439;28;20038;-80
2023/03/03 00:30:32;;;;;;;20.73;12.00;;;1.50;99.90;;;;;;4989396;28;20053;-80
2023/03/03 00:32:57;;;;;;;21.38;11.60;;;1.60;99.90;;;;;;4989254;28;20114;-80
2023/03/03 00:35:29;;;;;;;22.05;12.35;;;1.60;99.90;;;;;;4988630;28;20092;-80
2023/03/03 00:38:09;;;;;;;22.65;12.52;;;1.50;99.90;;;;;;4987771;28;20061;-80
2023/03/03 00:40:37;;;;;;;26.80;13.25;;;1.60;99.90;;;;;;4987509;28;20046;-80
2023/03/03 00:43:21;;;;;;;25.08;12.27;;;1.50;99.90;;;;;;4988974;28;20085;-80
2023/03/03 00:45:51;;;;;;;24.65;12.68;;;1.60;99.90;;;;;;4989449;28;20046;-80
2023/03/03 00:48:34;;;;;;;25.25;12.95;;;1.60;99.90;;;;;;4976650;28;20047;-80
2023/03/03 00:51:00;;;;;;;;;;;1.60;99.90;;;;;;4981646;28;20042;-80
2023/03/03 00:53:28;;;;;;;25.42;12.20;;;1.60;99.90;;;;;;4987244;28;20252;-80
2023/03/03 00:55:54;;;;;;;26.55;13.02;;;1.60;99.90;;;;;;4989196;28;20136;-80
2023/03/03 00:58:21;;;;;;;26.80;12.23;;;1.60;99.90;;;;;;4987580;28;20053;-80
2023/03/03 01:00:49;;;;;;;25.73;13.10;;;1.60;99.90;;;;;;4971928;28;20042;-80
2023/03/03 01:03:18;;;;;;;24.52;12.25;;;1.70;99.90;;;;;;4987508;28;20501;-80
2023/03/03 01:05:44;;;;;;;26.75;13.40;;;1.60;99.90;;;;;;4989750;28;20217;-80
2023/03/03 01:08:10;;;;;;;28.10;13.48;;;1.60;99.90;;;;;;4988564;28;20609;-80
2023/03/03 01:10:40;;;;;;;26.00;12.68;;;1.70;99.90;;;;;;4989530;28;20038;-80
2023/03/03 01:13:06;;;;;;;24.92;12.55;;;1.60;99.90;;;;;;4988603;28;20058;-81
2023/03/03 01:15:32;;;;;;;24.75;13.52;;;1.60;99.90;;;;;;4986094;28;20038;-81
2023/03/03 01:17:58;;;;;;;26.27;13.63;;;1.60;99.90;;;;;;4987511;28;20060;-80
2023/03/03 01:20:24;;;;;;;25.55;12.82;;;1.70;99.90;;;;;;4987284;28;20046;-80
2023/03/03 01:22:49;;;;;;;27.52;13.60;;;1.70;99.90;;;;;;4986266;28;20049;-81
2023/03/03 01:25:15;;;;;;;27.63;12.15;;;1.70;99.90;;;;;;4988345;28;20038;-81
2023/03/03 01:27:40;;;;;;;28.65;14.15;;;1.70;99.90;;;;;;4989037;28;20130;-80
2023/03/03 01:30:07;;;;;;;26.90;13.55;;;1.70;99.90;;;;;;4987215;28;20062;-80
2023/03/03 01:32:33;;;;;;;30.98;13.73;;;1.60;99.90;;;;;;4986859;28;20050;-81
2023/03/03 01:34:59;;;;;;;31.50;13.85;;;1.70;99.90;;;;;;4985526;28;20057;-80
2023/03/03 01:37:25;;;;;;;30.33;14.15;;;1.70;99.90;;;;;;4971575;28;20066;-80
2023/03/03 01:39:51;;;;;;;31.17;13.85;;;1.70;99.90;;;;;;4987385;28;20050;-80
2023/03/03 01:42:17;;;;;;;29.27;14.75;;;1.70;99.90;;;;;;4988899;28;20038;-81
2023/03/03 01:44:43;;;;;;;32.38;13.80;;;1.70;99.90;;;;;;4988947;28;20140;-80
2023/03/03 01:47:32;;;;;;;30.88;14.25;;;1.70;99.90;;;;;;4988450;28;20085;-80
2023/03/03 01:50:11;;;;;;;37.80;13.40;;;1.80;99.90;;;;;;4987943;28;20121;-81
2023/03/03 01:52:39;;;;;;;29.80;13.27;;;1.80;99.90;;;;;;4983025;28;20132;-80
2023/03/03 01:55:29;;;;;;;50.65;13.43;;;1.80;99.90;;;;;;4988039;28;20074;-81
2023/03/03 01:58:02;;;;;;;38.00;12.38;;;1.80;99.90;;;;;;4984656;28;20050;-81
2023/03/03 02:00:29;;;;;;;35.28;12.60;;;1.80;99.90;;;;;;4981240;28;20403;-81
2023/03/03 02:02:55;;;;;;;33.15;12.85;;;1.80;99.90;;;;;;4987670;28;20042;-80
2023/03/03 02:05:21;;;;;;;34.97;12.45;;;1.80;99.90;;;;;;4985973;28;20054;-81
2023/03/03 02:07:47;;;;;;;47.05;11.95;;;1.80;99.90;;;;;;4986590;28;20053;-81
2023/03/03 02:10:16;;;;;;;42.38;11.88;;;1.80;99.90;;;;;;4988958;28;20050;-81
2023/03/03 02:12:44;;;;;;;40.85;13.73;;;1.80;99.90;;;;;;4985041;28;20050;-80
2023/03/03 02:15:25;;;;;;;34.42;12.52;;;1.80;99.90;;;;;;4986395;28;20104;-80
2023/03/03 02:18:11;;;;;;;39.85;11.85;;;1.80;99.90;;;;;;4969914;28;20130;-80
2023/03/03 02:20:54;;;;;;;39.65;11.93;;;1.80;99.90;;;;;;4986194;28;20062;-81
2023/03/03 02:23:41;;;;;;;45.00;13.50;;;1.80;99.90;;;;;;4975201;28;20053;-81
2023/03/03 02:26:14;;;;;;;34.40;11.68;;;1.80;99.90;;;;;;4978920;28;20055;-81
2023/03/03 02:28:40;;;;;;;38.90;12.60;;;1.80;99.90;;;;;;4980211;28;20030;-81
2023/03/03 02:31:12;;;;;;;40.10;12.52;;;1.80;99.90;;;;;;4987435;28;20042;-81
2023/03/03 02:33:41;;;;;;;36.17;12.93;;;1.90;99.90;;;;;;4986589;28;20054;-81
2023/03/03 02:36:15;;;;;;;36.30;11.85;;;1.90;99.90;;;;;;4969471;28;20050;-81
2023/03/03 02:38:55;;;;;;;44.08;10.98;;;1.80;99.90;;;;;;4987464;28;20051;-81
2023/03/03 02:41:52;;;;;;;43.65;10.88;;;1.80;99.90;;;;;;4987780;28;20050;-81
2023/03/03 02:44:23;;;;;;;27.77;10.65;;;1.90;99.90;;;;;;4987808;28;20082;-81
2023/03/03 02:46:51;;;;;;;34.42;11.10;;;1.80;99.90;;;;;;4985397;28;20057;-81
2023/03/03 02:49:21;;;;;;;53.60;11.43;;;1.80;99.90;;;;;;4986557;28;20563;-81
2023/03/03 02:51:47;;;;;;;67.63;11.88;;;1.80;99.90;;;;;;4985424;28;20057;-80
2023/03/03 02:54:15;;;;;;;41.17;11.88;;;1.80;99.90;;;;;;4986882;28;20046;-81
2023/03/03 02:56:41;;;;;;;41.55;11.52;;;1.90;99.90;;;;;;4985955;28;20501;-81
2023/03/03 02:59:07;;;;;;;44.60;11.02;;;1.90;99.90;;;;;;4983367;28;20098;-80
2023/03/03 03:01:35;;;;;;;47.80;11.13;;;1.80;99.90;;;;;;4967674;28;20047;-81
2023/03/03 03:04:10;;;;;;;43.83;10.80;;;1.90;99.90;;;;;;4982894;28;20133;-81
2023/03/03 03:06:36;;;;;;;40.45;11.43;;;1.90;99.90;;;;;;4961728;28;20058;-81
2023/03/03 03:09:04;;;;;;;52.97;11.73;;;1.80;99.90;;;;;;4989991;28;20078;-81
2023/03/03 03:11:30;;;;;;;48.88;11.60;;;1.90;99.90;;;;;;4990228;28;20046;-80
2023/03/03 03:13:55;;;;;;;49.60;11.48;;;1.90;99.90;;;;;;4991283;28;20062;-81
2023/03/03 03:16:21;;;;;;;50.33;11.43;;;1.90;99.90;;;;;;4974522;28;20073;-81
2023/03/03 03:18:47;;;;;;;44.65;11.82;;;1.90;99.90;;;;;;4990581;28;20049;-80
2023/03/03 03:21:12;;;;;;;70.35;11.77;;;1.90;99.90;;;;;;4989724;28;20401;-80
2023/03/03 03:23:39;;;;;;;46.05;11.43;;;1.90;99.90;;;;;;4973572;28;20108;-81
2023/03/03 03:26:06;;;;;;;49.38;12.65;;;1.90;99.90;;;;;;4973506;28;20066;-80
2023/03/03 03:28:32;;;;;;;49.10;12.35;;;1.90;99.90;;;;;;4986827;28;20046;-80
2023/03/03 03:30:57;;;;;;;53.20;12.45;;;1.90;99.90;;;;;;4988658;28;20065;-81
2023/03/03 03:33:23;;;;;;;55.28;12.13;;;1.90;99.90;;;;;;4989342;28;20058;-80
2023/03/03 03:35:50;;;;;;;64.70;13.25;;;2.00;99.90;;;;;;4973514;28;20818;-80
2023/03/03 03:38:16;;;;;;;75.25;14.02;;;2.00;99.90;;;;;;4990160;28;20523;-81
2023/03/03 03:40:42;;;;;;;74.13;13.65;;;2.00;99.90;;;;;;4989441;28;20168;-81
2023/03/03 03:43:08;;;;;;;67.72;14.23;;;2.00;99.90;;;;;;4989900;28;20480;-81
2023/03/03 03:45:33;;;;;;;55.38;12.75;;;2.00;99.90;;;;;;4990929;28;20041;-80
2023/03/03 03:47:59;;;;;;;60.40;13.60;;;2.00;99.90;;;;;;4973659;28;20065;-81
2023/03/03 03:50:25;;;;;;;48.42;14.05;;;2.00;99.90;;;;;;4991802;28;20046;-80
2023/03/03 03:52:50;;;;;;;47.03;13.18;;;2.00;99.90;;;;;;4985839;28;20046;-80
2023/03/03 03:55:16;;;;;;;61.63;13.60;;;2.10;99.90;;;;;;4973221;28;20066;-80
2023/03/03 03:57:42;;;;;;;63.42;15.50;;;2.10;99.90;;;;;;4989187;28;20129;-80
2023/03/03 04:00:10;;;;;;;54.58;13.50;;;2.10;99.90;;;;;;4980735;28;20054;-80
2023/03/03 04:02:36;;;;;;;107.10;17.50;;;2.10;99.90;;;;;;4986244;28;20096;-80
2023/03/03 04:05:02;;;;;;;52.50;13.10;;;2.10;99.90;;;;;;4990970;28;20043;-80
2023/03/03 04:07:27;;;;;;;51.83;13.35;;;2.50;99.90;;;;;;4989514;28;20057;-80
2023/03/03 04:09:53;;;;;;;58.90;14.55;;;2.20;99.90;;;;;;4987935;28;20840;-80
2023/03/03 04:12:18;;;;;;;42.55;11.32;;;2.10;99.90;;;;;;4970924;28;20054;-80
2023/03/03 04:14:44;;;;;;;68.13;11.68;;;2.20;99.90;;;;;;4989723;28;20053;-80
2023/03/03 04:17:19;;;;;;;39.70;10.15;;;2.20;99.90;;;;;;4991210;28;20141;-80
2023/03/03 04:19:45;;;;;;;53.10;10.65;;;2.20;99.90;;;;;;4988770;28;20057;-80
2023/03/03 04:22:12;;;;;;;32.35;7.72;;;2.20;99.90;;;;;;4987646;28;20042;-80
2023/03/03 04:24:39;;;;;;;36.28;7.95;;;2.20;99.90;;;;;;4990317;28;20039;-80
2023/03/03 04:27:05;;;;;;;33.60;7.28;;;2.20;99.90;;;;;;4989065;28;20085;-80
2023/03/03 04:29:30;;;;;;;58.20;7.80;;;2.20;99.90;;;;;;4990485;28;20064;-80
2023/03/03 04:31:56;;;;;;;32.45;7.22;;;2.20;99.90;;;;;;4988146;28;20700;-80
2023/03/03 04:34:22;;;;;;;43.75;7.55;;;2.20;99.90;;;;;;4979748;28;20458;-80
2023/03/03 04:36:47;;;;;;;27.85;7.35;;;2.20;99.90;;;;;;4989760;28;20064;-80
2023/03/03 04:39:13;;;;;;;31.20;6.82;;;2.20;99.90;;;;;;4999383;28;20101;-80
2023/03/03 04:41:39;;;;;;;23.33;6.45;;;2.20;99.90;;;;;;4988483;28;20042;-80
2023/03/03 04:44:04;;;;;;;23.30;6.80;;;2.20;99.90;;;;;;4989886;28;20425;-80
2023/03/03 04:46:30;;;;;;;28.67;6.82;;;2.20;99.90;;;;;;4989402;28;20068;-80
2023/03/03 04:48:55;;;;;;;29.48;6.82;;;2.20;99.90;;;;;;4989781;28;20057;-80
2023/03/03 04:51:21;;;;;;;43.05;8.63;;;2.20;99.90;;;;;;4988463;28;20053;-80
2023/03/03 04:53:47;;;;;;;39.60;6.97;;;2.20;99.90;;;;;;4985238;28;20078;-80
2023/03/03 04:56:13;;;;;;;35.42;7.05;;;2.20;99.90;;;;;;4979296;28;20046;-80
2023/03/03 04:58:39;;;;;;;40.65;7.40;;;2.20;99.90;;;;;;4987429;28;20035;-80
2023/03/03 05:01:04;;;;;;;28.83;7.88;;;2.20;99.90;;;;;;4988209;28;20046;-80
2023/03/03 05:03:30;;;;;;;21.95;6.55;;;2.20;99.90;;;;;;4984516;28;20038;-80
2023/03/03 05:05:56;;;;;;;34.78;7.13;;;2.20;99.90;;;;;;4988149;28;20516;-80
2023/03/03 05:08:22;;;;;;;37.00;7.22;;;2.90;99.90;;;;;;4988498;28;20038;-80
2023/03/03 05:10:51;;;;;;;28.33;7.68;;;2.20;99.90;;;;;;4986821;28;20065;-80
2023/03/03 05:13:17;;;;;;;31.65;7.38;;;2.20;99.90;;;;;;4974811;28;20112;-80
2023/03/03 05:15:47;;;;;;;25.80;6.93;;;2.20;99.90;;;;;;4986643;28;20476;-80
2023/03/03 05:18:13;;;;;;;22.42;6.30;;;2.20;99.90;;;;;;4989269;28;20452;-80
2023/03/03 05:20:40;;;;;;;33.42;7.30;;;2.20;99.90;;;;;;4988427;28;20420;-80
2023/03/03 05:23:06;;;;;;;41.90;7.72;;;2.20;99.90;;;;;;4988971;28;20081;-80
2023/03/03 05:25:32;;;;;;;24.30;6.97;;;2.20;99.90;;;;;;4988032;28;20085;-80
2023/03/03 05:27:58;;;;;;;25.83;6.95;;;2.20;99.90;;;;;;4988244;28;20545;-80
2023/03/03 05:30:23;;;;;;;21.90;7.57;;;2.20;99.90;;;;;;4989207;28;20100;-80
2023/03/03 05:32:49;;;;;;;36.38;8.45;;;2.20;99.90;;;;;;4989025;28;20085;-80
2023/03/03 05:35:14;;;;;;;24.70;7.82;;;2.20;99.90;;;;;;4987014;28;20057;-80
2023/03/03 05:37:45;;;;;;;35.13;8.40;;;2.20;99.90;;;;;;4988494;28;20053;-80
2023/03/03 05:40:12;;;;;;;52.03;8.77;;;2.20;99.90;;;;;;4971129;28;20054;-80
2023/03/03 05:42:38;;;;;;;32.72;8.55;;;2.20;99.90;;;;;;4987565;28;20042;-80
2023/03/03 05:45:04;;;;;;;46.00;8.95;;;2.30;99.90;;;;;;4986089;28;20333;-80
2023/03/03 05:47:29;;;;;;;45.15;9.55;;;2.30;99.90;;;;;;4988013;28;20117;-80
2023/03/03 05:49:55;;;;;;;42.75;8.20;;;2.20;99.90;;;;;;4989417;28;20164;-80
2023/03/03 05:52:21;;;;;;;39.97;8.80;;;2.20;99.90;;;;;;4988707;28;20038;-80
2023/03/03 05:54:46;;;;;;;33.03;8.02;;;2.20;99.90;;;;;;4988239;28;20060;-80
2023/03/03 05:57:12;;;;;;;55.10;8.93;;;2.20;99.90;;;;;;4980100;28;20046;-80
2023/03/03 05:59:38;;;;;;;44.85;9.93;;;2.20;99.90;;;;;;4985874;28;20046;-80
2023/03/03 06:02:03;;;;;;;79.47;11.10;;;2.20;99.90;;;;;;4989030;28;20524;-80
2023/03/03 06:04:29;;;;;;;29.75;8.23;;;2.30;99.90;;;;;;4987894;28;20050;-81
2023/03/03 06:06:54;;;;;;;50.90;9.25;;;2.20;99.90;;;;;;4984423;28;20493;-81
2023/03/03 06:09:20;;;;;;;59.50;9.40;;;2.20;99.90;;;;;;4974775;28;20062;-81
2023/03/03 06:11:46;;;;;;;56.05;8.50;;;2.20;99.90;;;;;;4969662;28;20062;-82
2023/03/03 06:14:11;;;;;;;40.08;8.68;;;2.20;99.90;;;;;;4979967;28;20100;-82
2023/03/03 06:16:37;;;;;;;58.40;8.82;;;2.20;99.90;;;;;;4985941;28;20046;-81
2023/03/03 06:19:12;;;;;;;60.17;9.23;;;2.20;99.90;;;;;;4987247;28;20038;-82
2023/03/03 06:21:52;;;;;;;44.60;7.97;;;2.20;99.90;;;;;;4972201;28;20034;-81
2023/03/03 06:24:24;;;;;;;64.70;9.48;;;2.40;99.90;;;;;;4986996;28;20125;-81
2023/03/03 06:26:50;;;;;;;66.20;8.20;;;2.20;99.90;;;;;;4988190;28;20091;-81
2023/03/03 06:29:16;;;;;;;31.17;6.15;;;2.20;99.90;;;;;;4986551;28;20501;-82
2023/03/03 06:31:44;;;;;;;39.53;6.47;;;2.00;99.90;;;;;;4985887;28;20108;-82
2023/03/03 06:34:13;;;;;;;57.72;7.45;;;2.20;99.90;;;;;;4970237;28;20043;-81
2023/03/03 06:36:38;;;;;;;56.72;6.53;;;2.20;99.90;;;;;;4985458;28;20141;-81
2023/03/03 06:39:04;;;;;;;74.70;7.45;;;2.20;99.90;;;;;;4985628;28;20461;-82
2023/03/03 06:41:30;;;;;;;70.18;7.75;;;2.20;99.90;;;;;;4984180;28;20492;-82
2023/03/03 06:43:57;;;;;;;46.47;6.45;;;2.20;99.90;;;;;;4985139;28;20758;-82
2023/03/03 06:46:22;;;;;;;65.22;7.00;;;2.20;99.90;;;;;;4987381;28;20061;-82
2023/03/03 06:48:48;;;;;;;68.00;7.57;;;2.20;99.90;;;;;;4987176;28;20046;-80
2023/03/03 06:51:34;;;;;;;56.17;8.05;;;2.20;99.90;;;;;;4988292;28;20126;-82
2023/03/03 06:54:05;;;;;;;45.65;7.72;;;2.30;99.90;;;;;;4986652;28;20034;-81
2023/03/03 06:56:35;;;;;;;44.50;8.60;;;2.30;99.90;;;;;;4987020;28;20049;-81
2023/03/03 06:59:05;;;;;;;42.25;8.13;;;2.30;99.90;;;;;;4988116;28;20157;-82
2023/03/03 07:01:36;;;;;;;52.17;7.75;;;2.30;99.90;;;;;;4987736;28;20125;-81
2023/03/03 07:04:32;;;;;;;39.63;6.65;;;2.40;99.90;;;;;;4986439;28;20042;-81
2023/03/03 07:07:04;;;;;;;52.20;6.03;;;2.40;99.90;;;;;;4986585;28;20105;-81
2023/03/03 07:09:30;;;;;;;39.78;6.30;;;2.40;99.90;;;;;;4987371;28;20050;-82
2023/03/03 07:12:01;;;;;;;33.95;7.05;;;2.50;99.90;;;;;;4986942;28;20061;-82
2023/03/03 07:14:28;;;;;;;41.83;5.72;;;2.50;99.90;;;;;;4987065;28;20533;-82
2023/03/03 07:17:00;;;;;;;56.35;5.88;;;2.50;99.90;;;;;;4986756;28;20339;-82
2023/03/03 07:19:33;;;;;;;56.28;5.93;;;2.60;99.90;;;;;;4984225;28;20045;-82
2023/03/03 07:22:33;;;;;;;61.10;6.75;;;2.60;99.90;;;;;;4986548;28;20064;-83
2023/03/03 07:25:00;;;;;;;112.55;13.63;;;2.60;99.90;;;;;;4987377;28;20054;-80
2023/03/03 07:27:30;;;;;;;32.17;6.32;;;2.60;99.90;;;;;;4987932;28;20074;-80
2023/03/03 07:30:22;;;;;;;374.38;40.75;;;2.80;99.90;;;;;;4987531;28;20054;-80
2023/03/03 07:32:52;;;;;;;145.50;17.65;;;2.80;99.90;;;;;;4987089;28;20486;-79
2023/03/03 07:35:39;;;;;;;30.35;6.70;;;2.90;99.90;;;;;;4986074;28;20050;-79
2023/03/03 07:38:33;;;;;;;43.95;6.35;;;2.90;99.90;;;;;;4986911;28;20062;-80
2023/03/03 07:41:01;;;;;;;37.90;6.13;;;2.60;99.90;;;;;;4986926;28;20043;-80
2023/03/03 07:43:34;;;;;;;23.15;5.72;;;2.70;99.90;;;;;;4986583;28;20046;-79
2023/03/03 07:46:26;;;;;;;14.00;6.00;;;2.70;99.90;;;;;;4987933;28;20093;-79
2023/03/03 07:48:52;;;;;;;39.13;7.13;;;2.70;99.90;;;;;;4986247;28;20054;-79
2023/03/03 07:51:40;;;;;;;16.73;5.50;;;2.90;99.90;;;;;;4987743;28;20121;-79
2023/03/03 07:54:34;;;;;;;15.13;4.88;;;2.80;99.90;;;;;;4987165;28;20066;-79
2023/03/03 07:57:17;;;;;;;16.60;5.43;;;2.80;99.90;;;;;;4973330;28;20520;-79
2023/03/03 08:00:13;;;;;;;18.52;6.05;;;2.90;99.90;;;;;;4989669;28;20053;-79
2023/03/03 08:02:43;;;;;;;23.50;6.05;;;3.00;99.90;;;;;;4972580;28;20568;-80
2023/03/03 08:05:34;;;;;;;20.38;6.20;;;3.10;99.90;;;;;;4987999;28;20444;-81
2023/03/03 08:08:08;;;;;;;23.55;6.55;;;3.10;99.90;;;;;;4979680;28;20039;-81
2023/03/03 08:10:48;;;;;;;31.48;7.85;;;3.20;99.90;;;;;;4972307;28;20058;-81
2023/03/03 08:13:22;;;;;;;20.63;7.18;;;3.00;99.90;;;;;;4986931;28;20046;-81
2023/03/03 08:16:14;;;;;;;35.22;7.05;;;3.10;99.90;;;;;;4969634;28;20130;-82
2023/03/03 08:18:45;;;;;;;21.42;6.50;;;3.20;99.90;;;;;;4953384;28;20062;-82
2023/03/03 08:21:26;;;;;;;32.17;7.28;;;2.90;99.90;;;;;;4971280;28;20042;-82
2023/03/03 08:23:53;;;;;;;22.88;6.07;;;3.10;99.90;;;;;;4971145;28;20057;-81
2023/03/03 08:26:23;;;;;;;14.68;6.45;;;3.20;99.90;;;;;;4953825;28;20043;-81
2023/03/03 08:28:49;;;;;;;23.73;7.15;;;3.40;99.90;;;;;;4977243;28;20196;-81
2023/03/03 08:31:18;;;;;;;15.80;6.70;;;3.40;99.90;;;;;;4972572;28;20656;-80
2023/03/03 08:33:45;;;;;;;25.92;7.50;;;3.30;99.90;;;;;;4990028;28;20520;-80
2023/03/03 08:36:11;;;;;;;52.63;8.20;;;3.60;99.90;;;;;;4973960;28;20081;-82
2023/03/03 08:38:37;;;;;;;37.40;7.18;;;3.50;99.90;;;;;;4989146;28;20097;-81
2023/03/03 08:41:03;;;;;;;38.03;7.25;;;3.50;99.90;;;;;;4989939;28;20494;-81
2023/03/03 08:43:29;;;;;;;29.90;7.22;;;3.70;99.90;;;;;;4990720;28;20051;-81
2023/03/03 08:45:58;;;;;;;26.58;6.57;;;3.60;99.90;;;;;;4988533;28;20039;-79
2023/03/03 08:48:24;;;;;;;37.30;6.40;;;3.70;99.90;;;;;;4990463;28;20122;-80
2023/03/03 08:50:53;;;;;;;23.83;6.43;;;3.60;99.90;;;;;;4989777;28;20108;-80
2023/03/03 08:53:20;;;;;;;12.40;5.68;;;3.70;99.90;;;;;;4990365;28;20042;-80
2023/03/03 08:55:46;;;;;;;29.23;6.05;;;3.70;99.90;;;;;;4991242;28;20105;-80
2023/03/03 08:58:13;;;;;;;30.85;5.88;;;3.70;99.90;;;;;;4989234;28;20062;-80
2023/03/03 09:00:38;;;;;;;19.10;5.22;;;3.80;99.90;;;;;;4988392;28;20104;-80
2023/03/03 09:03:06;;;;;;;12.52;4.38;;;3.90;99.90;;;;;;4973064;28;20130;-80
2023/03/03 09:05:32;;;;;;;9.10;4.85;;;3.80;99.90;;;;;;4987718;28;20050;-80
2023/03/03 09:07:59;;;;;;;15.23;4.97;;;4.00;99.90;;;;;;4987425;28;20077;-81
2023/03/03 09:10:30;;;;;;;9.55;4.40;;;4.30;99.90;;;;;;4991135;28;20536;-80
2023/03/03 09:13:00;;;;;;;15.05;5.40;;;4.50;99.90;;;;;;4984738;28;20097;-81
2023/03/03 09:15:28;;;;;;;12.82;5.25;;;4.70;99.90;;;;;;4986603;28;20501;-81
2023/03/03 09:18:13;;;;;;;11.05;5.30;;;4.60;99.90;;;;;;4978183;28;20034;-81
2023/03/03 09:20:45;;;;;;;9.55;5.03;;;4.70;99.90;;;;;;4986484;28;20050;-81
2023/03/03 09:23:34;;;;;;;12.83;4.63;;;4.70;99.90;;;;;;4988611;28;20050;-82
2023/03/03 09:26:22;;;;;;;10.68;4.75;;;4.60;99.90;;;;;;4968099;28;20842;-81
2023/03/03 09:28:47;;;;;;;7.93;4.00;;;4.50;99.90;;;;;;4971268;28;20449;-80
2023/03/03 09:31:36;;;;;;;7.22;4.25;;;4.50;99.90;;;;;;4970776;28;20165;-81
2023/03/03 09:34:22;;;;;;;6.05;3.83;;;4.60;99.90;;;;;;4984039;28;20034;-80
2023/03/03 09:36:49;;;;;;;7.18;5.40;;;4.40;99.90;;;;;;4986411;28;20058;-80
2023/03/03 09:39:22;;;;;;;8.32;4.28;;;4.40;99.90;;;;;;4989191;28;20404;-81
2023/03/03 09:42:06;;;;;;;;;;;4.30;99.90;;;;;;4990261;28;20184;-80
2023/03/03 09:44:49;;;;;;;5.47;3.78;;;4.30;99.90;;;;;;4990264;28;19922;-81
2023/03/03 09:47:17;;;;;;;5.97;4.05;;;4.40;99.90;;;;;;4988615;28;20053;-80
2023/03/03 09:50:21;;;;;;;5.20;4.07;;;4.30;99.90;;;;;;4988428;28;20046;-81
2023/03/03 09:52:56;;;;;;;4.95;3.88;;;4.30;99.90;;;;;;4986771;28;20053;-80
2023/03/03 09:55:43;;;;;;;7.05;5.03;;;4.30;99.90;;;;;;4990125;28;20121;-80
2023/03/03 09:58:30;;;;;;;7.00;4.40;;;4.30;99.90;;;;;;4987776;28;20054;-79
2023/03/03 10:01:15;;;;;;;5.53;4.22;;;4.30;99.90;;;;;;4989316;28;20046;-81
2023/03/03 10:03:55;;;;;;;10.65;6.38;;;4.30;99.90;;;;;;4989541;28;20077;-79
2023/03/03 10:06:24;;;;;;;8.48;5.35;;;4.40;99.90;;;;;;4987617;28;20141;-81
2023/03/03 10:09:17;;;;;;;9.18;5.18;;;4.50;99.90;;;;;;4988448;28;20133;-79
2023/03/03 10:12:04;;;;;;;6.80;4.90;;;4.50;99.90;;;;;;4986617;28;20109;-82
2023/03/03 10:14:45;;;;;;;9.30;5.80;;;4.60;99.90;;;;;;4987954;28;20089;-82
2023/03/03 10:17:32;;;;;;;10.82;6.88;;;4.60;99.90;;;;;;4987158;28;20449;-81
2023/03/03 10:20:15;;;;;;;7.28;5.90;;;4.90;99.90;;;;;;4971265;28;20054;-82
2023/03/03 10:22:58;;;;;;;10.20;6.13;;;4.70;99.90;;;;;;4987998;28;20133;-81
2023/03/03 10:25:48;;;;;;;7.93;6.05;;;4.70;99.90;;;;;;4986653;28;20069;-81
2023/03/03 10:28:33;;;;;;;9.13;5.32;;;5.20;99.90;;;;;;4971619;28;20042;-81
2023/03/03 10:31:15;;;;;;;8.10;5.78;;;5.00;99.90;;;;;;4972023;28;20500;-82
2023/03/03 10:33:59;;;;;;;10.00;5.82;;;5.10;99.90;;;;;;4970342;28;20145;-82
2023/03/03 10:36:39;;;;;;;10.00;6.07;;;5.20;99.90;;;;;;4985893;28;20476;-81
2023/03/03 10:39:40;;;;;;;8.55;6.05;;;5.20;99.90;;;;;;4988198;28;21050;-81
2023/03/03 10:42:14;;;;;;;10.50;5.55;;;5.20;99.90;;;;;;4987639;28;20054;-81
2023/03/03 10:45:04;;;;;;;9.00;6.07;;;5.10;99.90;;;;;;4987804;28;20050;-81
2023/03/03 10:47:59;;;;;;;8.70;5.90;;;5.30;99.90;;;;;;4987900;28;20070;-81
2023/03/03 10:51:01;;;;;;;9.07;6.75;;;5.50;99.90;;;;;;4971645;28;20054;-82
2023/03/03 10:53:58;;;;;;;8.50;5.30;;;5.70;99.90;;;;;;4986771;28;20046;-81
2023/03/03 10:57:02;;;;;;;6.32;4.80;;;6.00;99.90;;;;;;4987835;28;20509;-83
2023/03/03 10:59:59;;;;;;;7.53;5.05;;;6.00;99.90;;;;;;4976892;28;20174;-82
2023/03/03 11:02:52;;;;;;;6.07;4.70;;;6.20;99.90;;;;;;4988165;28;20755;-81
2023/03/03 11:05:45;;;;;;;7.95;5.38;;;6.30;99.90;;;;;;4988362;28;20121;-81
2023/03/03 11:08:21;;;;;;;7.93;5.03;;;6.30;99.90;;;;;;4971741;28;20104;-81
2023/03/03 11:11:33;;;;;;;7.65;4.82;;;6.40;99.90;;;;;;4987978;28;20627;-82
2023/03/03 11:14:05;;;;;;;7.20;5.13;;;6.50;99.90;;;;;;4987007;28;20050;-81
2023/03/03 11:17:08;;;;;;;5.85;4.40;;;6.60;99.90;;;;;;4970149;28;20082;-81
2023/03/03 11:19:45;;;;;;;6.13;4.32;;;6.60;99.90;;;;;;4958553;28;20054;-81
2023/03/03 11:22:30;;;;;;;5.68;4.40;;;6.70;99.90;;;;;;4986250;28;20046;-81
2023/03/03 11:25:38;;;;;;;5.22;3.83;;;6.70;99.90;;;;;;4984381;28;20074;-81
2023/03/03 11:28:13;;;;;;;6.72;4.15;;;6.90;99.90;;;;;;4987470;28;20042;-81
2023/03/03 11:31:08;;;;;;;5.90;3.83;;;6.90;99.90;;;;;;4989421;28;20141;-80
2023/03/03 11:33:43;;;;;;;5.43;3.72;;;7.00;99.90;;;;;;4990685;28;20050;-81
2023/03/03 11:36:31;;;;;;;5.25;4.13;;;7.10;99.90;;;;;;4988559;28;20080;-80
2023/03/03 11:39:04;;;;;;;5.68;3.78;;;7.10;99.90;;;;;;4990273;28;20425;-80
2023/03/03 11:41:51;;;;;;;6.43;4.05;;;7.30;99.90;;;;;;4989781;28;20159;-80
2023/03/03 11:44:58;;;;;;;5.57;3.50;;;7.40;99.90;;;;;;4991285;28;20058;-82
2023/03/03 11:47:36;;;;;;;6.22;3.75;;;7.40;99.90;;;;;;4987623;28;20050;-80
2023/03/03 11:50:30;;;;;;;10.82;3.55;;;7.50;99.90;;;;;;4983192;28;20547;-80
2023/03/03 11:53:33;;;;;;;11.27;4.10;;;7.50;99.90;;;;;;4972664;28;20496;-80
2023/03/03 11:56:09;;;;;;;;;;;7.60;99.90;;;;;;4991820;28;20109;-80
2023/03/03 11:58:56;;;;;;;5.88;3.47;;;7.70;99.90;;;;;;4989353;28;20329;-80
2023/03/03 12:01:35;;;;;;;7.65;3.50;;;7.80;99.90;;;;;;4979523;28;20140;-80
2023/03/03 12:04:18;;;;;;;7.45;3.63;;;7.90;99.90;;;;;;4989172;28;20093;-80
2023/03/03 12:07:08;;;;;;;5.72;2.70;;;8.00;99.90;;;;;;4974321;28;20385;-81
2023/03/03 12:09:40;;;;;;;6.40;3.28;;;7.80;99.90;;;;;;4989954;28;20125;-80
2023/03/03 12:12:22;;;;;;;6.07;3.33;;;8.00;99.90;;;;;;4974716;28;20698;-80
2023/03/03 12:15:03;;;;;;;4.93;2.63;;;8.10;99.90;;;;;;4989187;28;20044;-80
2023/03/03 12:17:37;;;;;;;6.50;3.20;;;8.00;99.90;;;;;;4989542;28;20546;-80
2023/03/03 12:20:19;;;;;;;5.90;2.80;;;8.30;99.90;;;;;;4973352;28;20039;-80
2023/03/03 12:22:47;;;;;;;5.53;3.07;;;8.20;99.90;;;;;;4989867;28;20038;-80
2023/03/03 12:25:40;;;;;;;4.00;2.85;;;8.20;99.90;;;;;;4992064;28;20625;-80
2023/03/03 12:28:19;;;;;;;4.68;2.60;;;8.10;99.90;;;;;;4974085;28;20046;-80
2023/03/03 12:31:09;;;;;;;5.60;2.63;;;8.10;99.90;;;;;;4972594;28;20434;-80
2023/03/03 12:33:49;;;;;;;2.33;1.90;;;8.30;99.90;;;;;;4991614;28;20424;-79
2023/03/03 12:36:18;;;;;;;2.92;2.03;;;8.50;99.90;;;;;;4990284;28;20054;-79
2023/03/03 12:38:46;;;;;;;3.83;2.20;;;8.50;99.90;;;;;;4989646;28;20058;-79
2023/03/03 12:41:47;;;;;;;2.30;1.50;;;8.70;99.90;;;;;;4989005;28;20050;-79
2023/03/03 12:44:23;;;;;;;2.75;1.73;;;8.60;99.90;;;;;;4958890;28;20054;-80
2023/03/03 12:47:09;;;;;;;73.93;50.53;;;8.70;99.90;;;;;;4970568;28;20130;-80
2023/03/03 12:49:49;;;;;;;4.45;3.40;;;9.00;99.90;;;;;;4980078;28;20145;-80
2023/03/03 12:52:36;;;;;;;2.90;2.40;;;8.50;99.90;;;;;;4988674;28;20057;-79
2023/03/03 12:55:27;;;;;;;2.58;1.80;;;8.40;99.90;;;;;;4990479;28;20376;-80
2023/03/03 12:58:04;;;;;;;3.53;2.00;;;8.30;99.90;;;;;;4988578;28;20038;-79
2023/03/03 13:00:57;;;;;;;2.90;1.90;;;8.10;99.90;;;;;;4988760;28;20049;-79
2023/03/03 13:03:41;;;;;;;;;;;7.60;99.90;;;;;;4989994;28;20046;-79
2023/03/03 13:06:26;;;;;;;2.45;1.60;;;8.20;99.90;;;;;;4990632;28;20020;-79
2023/03/03 13:08:57;;;;;;;2.42;2.03;;;8.40;99.90;;;;;;4989134;28;20401;-79
2023/03/03 13:11:35;;;;;;;4.32;1.60;;;8.20;99.90;;;;;;4987533;28;20112;-79
2023/03/03 13:14:13;;;;;;;4.68;2.03;;;8.40;99.90;;;;;;4987984;28;20054;-79
2023/03/03 13:17:13;;;;;;;3.67;1.50;;;9.20;99.90;;;;;;4979764;28;20097;-79
2023/03/03 13:19:56;;;;;;;1.83;1.50;;;8.50;99.90;;;;;;4986691;28;20050;-79
2023/03/03 13:22:21;;;;;;;3.17;1.85;;;8.60;99.90;;;;;;4986451;28;20046;-80